Time;durP1;ratioP1;P1;durP2;ratioP2;P2;SDS_P1;SDS_P2;PMS_P1;PMS_P2;Temp;Humidity;BMP_temperature;BMP_pressure;BME280_temperature;BME280_humidity;BME280_pressure;Samples;Min_cycle;Max_cycle;Signal;HPM_P1;HPM_P2
2021/06/27 00:01:13;;;;;;;16.13;14.63;;;16.40;99.90;;;;;;4928169;29;20215;-82
2021/06/27 00:03:40;;;;;;;15.73;14.23;;;16.30;99.90;;;;;;4926231;29;20599;-83
2021/06/27 00:06:09;;;;;;;16.53;14.93;;;16.40;99.90;;;;;;4927939;29;20215;-83
2021/06/27 00:08:36;;;;;;;15.43;14.03;;;16.30;99.90;;;;;;4924849;29;20224;-83
2021/06/27 00:11:04;;;;;;;15.93;14.43;;;16.30;99.90;;;;;;4926002;29;20201;-82
2021/06/27 00:13:31;;;;;;;14.90;13.60;;;16.30;99.90;;;;;;4924411;29;20220;-83
2021/06/27 00:15:59;;;;;;;16.10;14.60;;;16.20;99.90;;;;;;4918025;29;20565;-82
2021/06/27 00:18:28;;;;;;;15.60;14.30;;;16.20;99.90;;;;;;4925545;29;20284;-83
2021/06/27 00:20:58;;;;;;;16.23;14.73;;;16.20;99.90;;;;;;4924707;29;20198;-82
2021/06/27 00:23:30;;;;;;;14.93;13.67;;;16.10;99.90;;;;;;4924384;29;20205;-82
2021/06/27 00:25:59;;;;;;;15.37;13.97;;;16.10;99.90;;;;;;4923426;29;20308;-83
2021/06/27 00:28:26;;;;;;;16.03;14.43;;;16.10;99.90;;;;;;4924991;29;20251;-82
2021/06/27 00:30:54;;;;;;;14.97;13.60;;;16.10;99.90;;;;;;4925270;29;20209;-82
2021/06/27 00:33:21;;;;;;;15.30;13.97;;;16.00;99.90;;;;;;4925088;29;20236;-82
2021/06/27 00:35:49;;;;;;;14.70;13.40;;;16.00;99.90;;;;;;4922801;29;20204;-82
2021/06/27 00:38:15;;;;;;;15.17;13.87;;;16.00;99.90;;;;;;4922454;29;20236;-82
2021/06/27 00:40:45;;;;;;;15.53;14.13;;;15.90;99.90;;;;;;4922492;29;20208;-82
2021/06/27 00:43:12;;;;;;;15.97;14.57;;;15.90;99.90;;;;;;4918570;29;20197;-83
2021/06/27 00:45:41;;;;;;;15.50;14.00;;;15.90;99.90;;;;;;4920379;29;20251;-82
2021/06/27 00:48:09;;;;;;;14.13;12.93;;;15.80;99.90;;;;;;4922455;29;20222;-83
2021/06/27 00:50:38;;;;;;;16.20;14.77;;;15.80;99.90;;;;;;4922376;29;20208;-83
2021/06/27 00:53:06;;;;;;;15.90;14.40;;;15.80;99.90;;;;;;4921112;29;20220;-82
2021/06/27 00:55:33;;;;;;;16.23;14.73;;;15.80;99.90;;;;;;4922865;29;20201;-83
2021/06/27 00:58:02;;;;;;;16.10;14.60;;;15.80;99.90;;;;;;4921824;29;20250;-82
2021/06/27 01:00:31;;;;;;;16.97;15.47;;;15.80;99.90;;;;;;4921470;29;20200;-83
2021/06/27 01:02:59;;;;;;;17.10;15.37;;;15.70;99.90;;;;;;4920603;29;20583;-82
2021/06/27 01:05:28;;;;;;;17.07;15.57;;;15.70;99.90;;;;;;4922238;29;20224;-82
2021/06/27 01:07:56;;;;;;;16.83;15.43;;;15.70;99.90;;;;;;4921200;29;20592;-82
2021/06/27 01:10:23;;;;;;;17.10;15.57;;;15.70;99.90;;;;;;4920174;29;20200;-82
2021/06/27 01:12:51;;;;;;;15.67;14.27;;;15.70;99.90;;;;;;4919471;29;20203;-82
2021/06/27 01:15:20;;;;;;;17.50;15.90;;;15.70;99.90;;;;;;4919826;29;20196;-82
2021/06/27 01:17:49;;;;;;;17.27;15.67;;;15.60;99.90;;;;;;4946988;23;20656;-77
2021/06/27 01:20:19;;;;;;;17.10;15.60;;;15.60;99.90;;;;;;4898263;29;20685;-77
2021/06/27 01:22:48;;;;;;;16.47;15.07;;;15.50;99.90;;;;;;4898328;29;20212;-77
2021/06/27 01:25:18;;;;;;;17.30;15.77;;;15.50;99.90;;;;;;4898601;29;20209;-77
2021/06/27 01:27:45;;;;;;;16.80;15.27;;;15.50;99.90;;;;;;4897049;29;20231;-77
2021/06/27 01:30:13;;;;;;;17.63;16.03;;;15.50;99.90;;;;;;4898474;29;20261;-77
2021/06/27 01:32:42;;;;;;;16.53;15.03;;;15.50;99.90;;;;;;4897315;29;20211;-77
2021/06/27 01:35:10;;;;;;;15.93;14.53;;;15.40;99.90;;;;;;4901675;29;20196;-77
2021/06/27 01:37:38;;;;;;;16.87;15.43;;;15.50;99.90;;;;;;4908410;29;20767;-77
2021/06/27 01:40:08;;;;;;;17.77;16.20;;;15.40;99.90;;;;;;4898466;29;20252;-75
2021/06/27 01:42:35;;;;;;;17.00;15.40;;;15.40;99.90;;;;;;4896967;29;20205;-77
2021/06/27 01:45:10;;;;;;;18.17;16.47;;;15.40;99.90;;;;;;4896857;29;20974;-77
2021/06/27 01:47:37;;;;;;;17.80;16.20;;;15.40;99.90;;;;;;4897944;29;20276;-75
2021/06/27 01:50:05;;;;;;;17.07;15.57;;;15.40;99.90;;;;;;4898057;29;20272;-77
2021/06/27 01:52:32;;;;;;;16.57;15.17;;;15.30;99.90;;;;;;4898069;29;20205;-77
2021/06/27 01:54:59;;;;;;;17.30;15.60;;;15.30;99.90;;;;;;4897093;29;20200;-77
2021/06/27 01:57:27;;;;;;;17.27;15.77;;;15.30;99.90;;;;;;4898021;29;20284;-78
2021/06/27 01:59:54;;;;;;;17.20;15.60;;;15.20;99.90;;;;;;4897948;29;20549;-77
2021/06/27 02:02:21;;;;;;;17.60;16.00;;;15.20;99.90;;;;;;4898014;29;20216;-77
2021/06/27 02:04:48;;;;;;;12.10;10.77;;;15.20;99.90;;;;;;4897913;29;20702;-77
2021/06/27 02:07:15;;;;;;;11.50;10.23;;;15.20;99.90;;;;;;4896614;29;20244;-77
2021/06/27 02:09:43;;;;;;;12.37;10.37;;;15.20;99.90;;;;;;4896496;29;20212;-77
2021/06/27 02:12:10;;;;;;;12.50;11.20;;;15.30;99.90;;;;;;4898173;29;20196;-77
2021/06/27 02:14:40;;;;;;;12.27;11.00;;;15.30;99.90;;;;;;4897701;29;20201;-77
2021/06/27 02:17:07;;;;;;;12.17;10.87;;;15.30;99.90;;;;;;4891229;29;20275;-77
2021/06/27 02:19:35;;;;;;;13.00;11.60;;;15.20;99.90;;;;;;4897719;29;20205;-77
2021/06/27 02:22:02;;;;;;;13.73;10.97;;;15.20;99.90;;;;;;4898310;29;20253;-77
2021/06/27 02:24:29;;;;;;;13.87;12.37;;;15.10;99.90;;;;;;4896381;29;20208;-77
2021/06/27 02:26:56;;;;;;;12.43;11.13;;;15.20;99.90;;;;;;4896518;29;20318;-77
2021/06/27 02:29:23;;;;;;;18.07;11.90;;;15.10;99.90;;;;;;4897569;29;20200;-77
2021/06/27 02:31:51;;;;;;;13.70;12.30;;;15.10;99.90;;;;;;4897758;29;20193;-77
2021/06/27 02:34:19;;;;;;;13.00;11.70;;;15.20;99.90;;;;;;4901256;29;20208;-76
2021/06/27 02:36:45;;;;;;;15.23;11.87;;;15.10;99.90;;;;;;4897603;29;20607;-76
2021/06/27 02:39:13;;;;;;;12.73;11.43;;;15.10;99.90;;;;;;4907805;29;20224;-76
2021/06/27 02:41:40;;;;;;;14.27;12.77;;;15.10;99.90;;;;;;4906616;29;20200;-77
2021/06/27 02:44:08;;;;;;;13.73;12.43;;;15.10;99.90;;;;;;4900913;29;20604;-77
2021/06/27 02:46:35;;;;;;;14.63;13.33;;;15.10;99.90;;;;;;4898702;29;20230;-77
2021/06/27 02:49:03;;;;;;;15.30;13.80;;;15.00;99.90;;;;;;4900708;29;20232;-78
2021/06/27 02:51:30;;;;;;;15.40;14.00;;;15.00;99.90;;;;;;4899958;29;20201;-77
2021/06/27 02:53:56;;;;;;;14.23;12.80;;;15.00;99.90;;;;;;4896473;29;20195;-76
2021/06/27 02:56:23;;;;;;;15.13;12.93;;;15.00;99.90;;;;;;4896492;29;20207;-77
2021/06/27 02:58:50;;;;;;;15.33;13.77;;;15.00;99.90;;;;;;4886690;29;20227;-76
2021/06/27 03:01:19;;;;;;;15.40;13.73;;;15.00;99.90;;;;;;4896756;29;20219;-76
2021/06/27 03:03:47;;;;;;;13.63;11.93;;;15.10;99.90;;;;;;4890566;29;20277;-76
2021/06/27 03:06:16;;;;;;;15.20;13.60;;;15.10;99.90;;;;;;4889934;29;20228;-76
2021/06/27 03:08:43;;;;;;;14.03;12.77;;;15.10;99.90;;;;;;4888775;29;20232;-76
2021/06/27 03:11:11;;;;;;;13.97;12.60;;;15.10;99.90;;;;;;4895233;29;20208;-75
2021/06/27 03:13:39;;;;;;;13.33;11.80;;;15.10;99.90;;;;;;4893686;29;20208;-76
2021/06/27 03:16:07;;;;;;;13.00;11.70;;;15.10;99.90;;;;;;4895484;29;20204;-76
2021/06/27 03:18:34;;;;;;;12.77;11.40;;;15.10;99.90;;;;;;4895014;29;20268;-77
2021/06/27 03:21:02;;;;;;;13.03;11.20;;;15.10;99.90;;;;;;4897783;29;20192;-77
2021/06/27 03:23:30;;;;;;;13.33;11.93;;;15.20;99.90;;;;;;4896853;29;20209;-78
2021/06/27 03:25:57;;;;;;;12.17;10.87;;;15.20;99.90;;;;;;4899538;29;20215;-77
2021/06/27 03:28:26;;;;;;;12.07;10.83;;;15.20;99.90;;;;;;4900295;29;20228;-77
2021/06/27 03:30:52;;;;;;;13.10;11.33;;;15.30;99.90;;;;;;4895999;29;20675;-76
2021/06/27 03:33:19;;;;;;;12.00;10.80;;;15.30;99.90;;;;;;4899376;29;20200;-76
2021/06/27 03:35:46;;;;;;;11.03;9.67;;;15.30;99.90;;;;;;4896315;29;20196;-77
2021/06/27 03:38:18;;;;;;;11.80;10.43;;;15.30;99.90;;;;;;4902951;29;20630;-77
2021/06/27 03:40:46;;;;;;;14.03;12.00;;;15.30;99.90;;;;;;4903204;29;20822;-77
2021/06/27 03:43:13;;;;;;;12.43;11.13;;;15.30;99.90;;;;;;4896431;29;20201;-77
2021/06/27 03:45:40;;;;;;;14.63;12.07;;;15.20;99.90;;;;;;4895709;29;20264;-77
2021/06/27 03:48:07;;;;;;;14.53;12.30;;;15.30;99.90;;;;;;4884194;29;20225;-77
2021/06/27 03:50:35;;;;;;;11.23;10.13;;;15.30;99.90;;;;;;4883369;29;20216;-77
2021/06/27 03:53:02;;;;;;;13.70;11.63;;;15.40;99.90;;;;;;4892506;29;20200;-76
2021/06/27 03:55:29;;;;;;;13.77;12.47;;;15.50;99.90;;;;;;4888226;29;20194;-77
2021/06/27 03:57:58;;;;;;;13.83;12.63;;;15.50;99.90;;;;;;4902048;29;20251;-77
2021/06/27 04:00:25;;;;;;;16.60;14.90;;;15.60;99.90;;;;;;4884118;29;20234;-76
2021/06/27 04:02:52;;;;;;;15.17;13.87;;;15.70;99.90;;;;;;4882186;29;20204;-77
2021/06/27 04:05:19;;;;;;;15.00;13.60;;;15.80;99.90;;;;;;4888118;29;20794;-77
2021/06/27 04:07:46;;;;;;;17.73;16.07;;;15.80;99.90;;;;;;4887144;29;20214;-77
2021/06/27 04:10:13;;;;;;;17.70;16.10;;;15.80;99.90;;;;;;4894133;29;20205;-77
2021/06/27 04:12:41;;;;;;;13.23;11.80;;;15.90;99.90;;;;;;4898351;29;20659;-79
2021/06/27 04:15:10;;;;;;;11.67;10.37;;;16.00;99.90;;;;;;4906626;29;20253;-76
2021/06/27 04:17:37;;;;;;;11.70;10.50;;;16.00;99.90;;;;;;4898666;29;20278;-77
2021/06/27 04:20:05;;;;;;;11.53;10.17;;;16.10;99.90;;;;;;4899464;29;20193;-77
2021/06/27 04:22:32;;;;;;;11.70;9.50;;;16.20;99.90;;;;;;4902826;29;20201;-77
2021/06/27 04:25:01;;;;;;;10.50;9.40;;;16.30;99.90;;;;;;4899284;29;20201;-77
2021/06/27 04:27:28;;;;;;;10.17;9.17;;;16.40;99.90;;;;;;4904107;29;20702;-78
2021/06/27 04:29:55;;;;;;;10.93;9.83;;;16.40;99.90;;;;;;4904003;29;20197;-78
2021/06/27 04:32:23;;;;;;;13.23;12.03;;;16.40;99.90;;;;;;4909728;29;20202;-78
2021/06/27 04:34:50;;;;;;;13.40;12.30;;;16.40;99.90;;;;;;4901229;29;20612;-79
2021/06/27 04:37:17;;;;;;;15.07;13.67;;;16.50;99.90;;;;;;4898771;29;20331;-79
2021/06/27 04:39:44;;;;;;;14.20;13.00;;;16.50;99.90;;;;;;4900034;29;20218;-77
2021/06/27 04:42:14;;;;;;;12.60;11.50;;;16.50;99.90;;;;;;4900064;29;20199;-77
2021/06/27 04:44:41;;;;;;;15.33;13.23;;;16.60;99.90;;;;;;4903649;29;20211;-78
2021/06/27 04:47:09;;;;;;;10.43;9.33;;;16.70;99.90;;;;;;4892073;29;20223;-78
2021/06/27 04:49:39;;;;;;;10.53;8.90;;;16.70;99.90;;;;;;4894641;29;20263;-77
2021/06/27 04:52:07;;;;;;;12.97;11.67;;;16.70;99.90;;;;;;4889600;29;20206;-77
2021/06/27 04:54:34;;;;;;;12.30;11.17;;;16.80;99.90;;;;;;4891951;29;20233;-78
2021/06/27 04:57:01;;;;;;;13.43;12.30;;;16.90;99.90;;;;;;4888119;29;20228;-78
2021/06/27 04:59:28;;;;;;;11.80;10.73;;;17.00;99.90;;;;;;4894368;29;20217;-77
2021/06/27 05:01:55;;;;;;;10.37;9.37;;;17.00;99.90;;;;;;4892343;29;20276;-77
2021/06/27 05:04:22;;;;;;;13.67;10.50;;;17.10;99.90;;;;;;4886143;29;20211;-78
2021/06/27 05:06:50;;;;;;;10.07;9.07;;;17.10;99.90;;;;;;4897742;29;20218;-78
2021/06/27 05:09:17;;;;;;;10.57;9.57;;;17.20;99.90;;;;;;4887785;29;20266;-78
2021/06/27 05:11:44;;;;;;;10.37;9.20;;;17.30;99.90;;;;;;4891099;29;20236;-78
2021/06/27 05:14:11;;;;;;;9.67;8.37;;;17.30;99.90;;;;;;4885864;29;20197;-77
2021/06/27 05:16:38;;;;;;;11.07;9.97;;;17.40;99.90;;;;;;4888687;29;20685;-77
2021/06/27 05:19:04;;;;;;;11.90;10.80;;;17.60;99.90;;;;;;4889594;29;20235;-78
2021/06/27 05:21:31;;;;;;;11.77;10.57;;;17.60;99.90;;;;;;4902846;29;20269;-77
2021/06/27 05:24:00;;;;;;;12.87;11.77;;;17.60;99.90;;;;;;4900137;29;20223;-77
2021/06/27 05:26:26;;;;;;;11.73;10.73;;;17.60;99.90;;;;;;4913065;29;20209;-77
2021/06/27 05:28:53;;;;;;;12.07;10.97;;;17.70;99.90;;;;;;4899163;29;20228;-76
2021/06/27 05:31:20;;;;;;;12.07;9.70;;;17.70;99.90;;;;;;4900447;29;20334;-77
2021/06/27 05:33:47;;;;;;;9.33;8.43;;;17.90;99.90;;;;;;4903485;29;20218;-76
2021/06/27 05:36:14;;;;;;;10.37;9.37;;;17.90;99.90;;;;;;4899954;29;20263;-77
2021/06/27 05:38:41;;;;;;;9.93;9.03;;;18.10;99.90;;;;;;4890657;29;20230;-77
2021/06/27 05:41:09;;;;;;;10.10;9.00;;;18.10;99.90;;;;;;4897048;29;20234;-77
2021/06/27 05:43:36;;;;;;;9.10;8.20;;;18.30;99.90;;;;;;4897311;29;20437;-78
2021/06/27 05:46:03;;;;;;;12.03;10.83;;;18.40;99.90;;;;;;4899058;29;20707;-76
2021/06/27 05:48:30;;;;;;;12.83;11.63;;;18.40;99.90;;;;;;4898018;29;20762;-76
2021/06/27 05:50:56;;;;;;;12.57;11.47;;;18.50;99.90;;;;;;4896383;29;20211;-75
2021/06/27 05:53:23;;;;;;;11.67;10.67;;;18.90;99.90;;;;;;4896542;29;20216;-75
2021/06/27 05:56:08;;;;;;;14.80;13.70;;;19.60;99.90;;;;;;4896308;29;20212;-75
2021/06/27 05:58:37;;;;;;;12.73;11.73;;;20.10;99.90;;;;;;4886948;29;20217;-75
2021/06/27 06:01:05;;;;;;;14.20;12.87;;;20.50;99.90;;;;;;4896110;29;20225;-75
2021/06/27 06:03:31;;;;;;;8.20;7.40;;;20.80;99.90;;;;;;4896968;29;20201;-75
2021/06/27 06:05:58;;;;;;;12.07;11.07;;;21.50;99.90;;;;;;4889810;29;20200;-76
2021/06/27 06:08:25;;;;;;;7.50;6.80;;;22.20;99.90;;;;;;4897321;29;20263;-75
2021/06/27 06:10:52;;;;;;;8.63;7.80;;;22.50;99.90;;;;;;4897286;29;20203;-75
2021/06/27 06:13:19;;;;;;;8.50;7.67;;;23.00;99.90;;;;;;4896069;29;20676;-76
2021/06/27 06:15:47;;;;;;;7.53;6.73;;;23.20;99.90;;;;;;4895978;29;20252;-76
2021/06/27 06:18:14;;;;;;;8.17;6.47;;;23.90;99.90;;;;;;4895688;29;20240;-76
2021/06/27 06:20:41;;;;;;;11.40;10.50;;;24.20;99.90;;;;;;4895724;29;20623;-75
2021/06/27 06:23:08;;;;;;;11.83;10.93;;;24.50;99.90;;;;;;4897195;29;20208;-76
2021/06/27 06:25:35;;;;;;;9.83;8.93;;;24.70;99.90;;;;;;4895795;29;20212;-76
2021/06/27 06:28:02;;;;;;;11.27;10.37;;;24.90;99.90;;;;;;4896833;29;20726;-76
2021/06/27 06:30:28;;;;;;;11.20;10.20;;;25.20;99.90;;;;;;4897099;29;20211;-75
2021/06/27 06:32:56;;;;;;;10.80;9.73;;;25.20;99.90;;;;;;4896981;29;20204;-76
2021/06/27 06:35:23;;;;;;;11.53;10.60;;;25.50;99.90;;;;;;4896977;29;20260;-76
2021/06/27 06:37:50;;;;;;;10.43;9.53;;;25.50;99.90;;;;;;4897662;29;20254;-75
2021/06/27 06:40:17;;;;;;;10.30;9.40;;;25.70;99.90;;;;;;4894359;29;20216;-76
2021/06/27 06:42:44;;;;;;;9.80;9.00;;;25.80;99.90;;;;;;4895788;29;20277;-76
2021/06/27 06:45:11;;;;;;;10.57;9.67;;;25.80;99.90;;;;;;4900303;29;20739;-76
2021/06/27 06:47:38;;;;;;;9.80;9.00;;;25.80;99.90;;;;;;4896910;29;20231;-76
2021/06/27 06:50:07;;;;;;;10.27;9.47;;;26.00;99.90;;;;;;4908199;29;20203;-75
2021/06/27 06:52:34;;;;;;;11.20;10.03;;;26.30;99.90;;;;;;4896932;29;20208;-75
2021/06/27 06:55:01;;;;;;;10.33;9.33;;;26.20;99.90;;;;;;4900877;29;20229;-76
2021/06/27 06:57:28;;;;;;;10.10;9.30;;;26.30;99.90;;;;;;4898120;29;20212;-76
2021/06/27 06:59:55;;;;;;;10.07;9.27;;;26.60;99.90;;;;;;4896748;29;20213;-76
2021/06/27 07:02:22;;;;;;;9.80;9.10;;;26.60;99.90;;;;;;4896536;29;20200;-76
2021/06/27 07:04:49;;;;;;;10.07;9.27;;;26.90;99.90;;;;;;4896675;29;20730;-75
2021/06/27 07:07:17;;;;;;;10.47;9.57;;;27.20;99.90;;;;;;4897133;29;20224;-75
2021/06/27 07:09:44;;;;;;;9.57;8.87;;;27.20;99.90;;;;;;4895738;29;20672;-76
2021/06/27 07:12:11;;;;;;;8.70;7.90;;;27.40;99.90;;;;;;4896670;29;20232;-76
2021/06/27 07:14:38;;;;;;;10.37;9.57;;;27.80;99.90;;;;;;4904514;29;20208;-76
2021/06/27 07:17:05;;;;;;;10.57;9.83;;;27.60;99.90;;;;;;4899679;29;20201;-76
2021/06/27 07:23:32;;;;;;;10.13;9.33;;;27.80;99.90;;;;;;4866785;29;20224;-85
2021/06/27 07:26:02;;;;;;;9.87;9.17;;;28.10;99.90;;;;;;4904806;29;20305;-85
2021/06/27 07:28:37;;;;;;;10.10;9.30;;;28.20;99.90;;;;;;4905585;29;20331;-84
2021/06/27 07:31:07;;;;;;;9.60;8.90;;;28.10;99.90;;;;;;4904961;29;20208;-85
2021/06/27 07:33:41;;;;;;;10.80;9.90;;;28.00;99.90;;;;;;4902941;29;20726;-85
2021/06/27 07:36:30;;;;;;;;;;;;;;;;;;;;;
2021/06/27 07:39:08;;;;;;;10.20;9.50;;;27.80;99.90;;;;;;4921468;29;20287;-80
2021/06/27 07:41:35;;;;;;;10.80;9.80;;;27.80;99.90;;;;;;4904194;29;20201;-84
2021/06/27 07:44:03;;;;;;;10.63;9.93;;;27.70;99.90;;;;;;4901685;29;20216;-85
2021/06/27 07:46:56;;;;;;;10.30;9.60;;;27.60;99.90;;;;;;4903751;29;20200;-84
2021/06/27 07:49:36;;;;;;;11.50;10.60;;;27.70;99.90;;;;;;4912816;29;20264;-82
2021/06/27 07:52:16;;;;;;;10.97;10.07;;;27.80;99.90;;;;;;4897312;29;20224;-83
2021/06/27 07:54:50;;;;;;;10.60;9.80;;;27.80;99.90;;;;;;4901138;29;20235;-83
2021/06/27 07:57:32;;;;;;;10.73;9.93;;;27.90;99.90;;;;;;4901013;29;20208;-81
2021/06/27 08:00:00;;;;;;;10.30;9.60;;;28.10;99.90;;;;;;4902780;29;20221;-83
2021/06/27 08:02:29;;;;;;;10.37;9.57;;;28.10;99.90;;;;;;4903641;29;20212;-84
2021/06/27 08:04:55;;;;;;;10.17;9.37;;;28.20;99.90;;;;;;4902424;29;20619;-85
2021/06/27 08:07:22;;;;;;;10.40;9.70;;;28.60;99.90;;;;;;4905138;29;20219;-85
2021/06/27 08:09:51;;;;;;;10.23;9.53;;;28.70;99.90;;;;;;4902734;29;20313;-84
2021/06/27 08:12:17;;;;;;;10.53;9.83;;;29.20;99.90;;;;;;4902160;29;20216;-83
2021/06/27 08:14:44;;;;;;;11.17;10.23;;;29.10;99.90;;;;;;4903216;29;20211;-85
2021/06/27 08:17:11;;;;;;;10.50;9.80;;;29.00;99.90;;;;;;4917803;29;20231;-85
2021/06/27 08:19:38;;;;;;;10.30;9.60;;;29.20;99.90;;;;;;4904348;29;20228;-85
2021/06/27 08:22:09;;;;;;;10.30;9.50;;;29.20;99.90;;;;;;4903626;29;20212;-84
2021/06/27 08:24:50;;;;;;;9.70;9.10;;;29.10;99.90;;;;;;4898937;29;20213;-82
2021/06/27 08:27:49;;;;;;;10.13;9.43;;;29.10;99.90;;;;;;4916986;29;20220;-82
2021/06/27 08:38:10;;;;;;;9.87;8.93;;;29.70;99.90;;;;;;4868134;29;20227;-84
2021/06/27 08:40:37;;;;;;;9.83;9.20;;;30.10;99.90;;;;;;4899084;29;20196;-81
2021/06/27 08:43:09;;;;;;;9.77;9.07;;;29.90;99.90;;;;;;4896109;29;20200;-78
2021/06/27 08:45:42;;;;;;;10.13;9.27;;;30.10;99.90;;;;;;4908626;29;20259;-79
2021/06/27 08:48:10;;;;;;;9.80;9.10;;;30.10;99.90;;;;;;4889919;29;20220;-80
2021/06/27 08:50:37;;;;;;;9.20;8.60;;;30.30;99.90;;;;;;4889462;29;20208;-80
2021/06/27 08:53:13;;;;;;;9.23;8.63;;;30.30;99.90;;;;;;4896114;29;20219;-81
2021/06/27 08:56:17;;;;;;;10.03;9.37;;;30.20;99.90;;;;;;4897754;29;20226;-80
2021/06/27 08:58:46;;;;;;;8.70;8.20;;;30.00;99.90;;;;;;4895946;29;20224;-80
2021/06/27 09:01:15;;;;;;;9.43;8.73;;;30.10;99.90;;;;;;4897170;29;20205;-80
2021/06/27 09:03:42;;;;;;;8.63;8.03;;;30.30;99.90;;;;;;4900578;29;20200;-83
2021/06/27 09:06:12;;;;;;;8.87;8.17;;;30.40;99.90;;;;;;4901623;29;20619;-82
2021/06/27 09:08:42;;;;;;;8.97;8.37;;;30.70;99.90;;;;;;4898993;29;20216;-81
2021/06/27 09:11:14;;;;;;;8.67;8.07;;;31.10;99.90;;;;;;4914881;29;20224;-82
2021/06/27 09:13:43;;;;;;;9.23;8.63;;;31.40;99.90;;;;;;4899262;29;20201;-82
2021/06/27 09:16:28;;;;;;;8.80;8.20;;;31.30;99.90;;;;;;4897913;29;20209;-82
2021/06/27 09:19:01;;;;;;;8.27;7.77;;;31.50;99.90;;;;;;4896491;29;20795;-83
2021/06/27 09:21:30;;;;;;;7.70;7.23;;;31.50;99.70;;;;;;4906506;29;20314;-83
2021/06/27 09:23:58;;;;;;;6.83;6.33;;;31.50;99.90;;;;;;4899501;29;20204;-82
2021/06/27 09:26:28;;;;;;;6.07;5.67;;;31.70;99.90;;;;;;4898361;29;20806;-83
2021/06/27 09:28:55;;;;;;;6.67;6.10;;;31.80;99.00;;;;;;4898664;29;20227;-82
2021/06/27 09:31:39;;;;;;;8.40;7.90;;;31.60;96.00;;;;;;4898338;29;20201;-82
2021/06/27 09:34:08;;;;;;;7.13;6.73;;;31.80;97.50;;;;;;4893977;29;20200;-83
2021/06/27 09:36:38;;;;;;;6.40;6.00;;;32.10;96.40;;;;;;4898868;29;20204;-82
2021/06/27 09:39:10;;;;;;;6.77;6.37;;;32.10;95.40;;;;;;4899176;29;20217;-82
2021/06/27 09:41:47;;;;;;;7.10;6.70;;;32.00;95.30;;;;;;4897428;29;20292;-83
2021/06/27 09:44:15;;;;;;;6.60;6.20;;;31.40;94.50;;;;;;4893711;29;20276;-82
2021/06/27 09:46:46;;;;;;;7.53;7.03;;;31.30;92.40;;;;;;4898607;29;20227;-82
2021/06/27 09:49:15;;;;;;;7.03;6.60;;;30.70;93.40;;;;;;4898522;29;20240;-81
2021/06/27 09:51:47;;;;;;;7.37;6.87;;;31.00;93.30;;;;;;4897168;29;20810;-82
2021/06/27 09:54:16;;;;;;;7.60;7.10;;;31.10;94.60;;;;;;4898139;29;20212;-82
2021/06/27 09:56:44;;;;;;;7.13;6.73;;;31.40;95.20;;;;;;4897120;29;20200;-82
2021/06/27 09:59:13;;;;;;;7.07;6.67;;;31.50;95.30;;;;;;4898177;29;20213;-82
2021/06/27 10:01:41;;;;;;;6.73;6.33;;;31.70;93.80;;;;;;4898304;29;20224;-82
2021/06/27 10:04:11;;;;;;;6.63;6.23;;;31.40;90.30;;;;;;4897371;29;20230;-82
2021/06/27 10:06:49;;;;;;;6.67;6.27;;;31.00;90.80;;;;;;4896785;29;20215;-82
2021/06/27 10:09:20;;;;;;;7.17;6.70;;;30.80;93.30;;;;;;4916679;29;20284;-83
2021/06/27 10:11:59;;;;;;;6.70;6.20;;;30.90;92.90;;;;;;4898889;29;20227;-82
2021/06/27 10:14:29;;;;;;;6.93;6.43;;;31.20;93.70;;;;;;4897077;29;20208;-82
2021/06/27 10:16:57;;;;;;;6.37;5.97;;;31.60;93.40;;;;;;4898024;29;20200;-82
2021/06/27 10:19:26;;;;;;;6.80;6.40;;;31.80;91.40;;;;;;4902988;29;20231;-83
2021/06/27 10:21:54;;;;;;;6.77;6.37;;;31.90;91.40;;;;;;4905092;29;20205;-82
2021/06/27 10:24:22;;;;;;;6.60;6.20;;;32.20;90.40;;;;;;4898390;29;20193;-82
2021/06/27 10:26:49;;;;;;;6.97;6.47;;;32.50;91.30;;;;;;4896406;29;20236;-82
2021/06/27 10:29:18;;;;;;;7.10;6.60;;;32.50;91.70;;;;;;4896781;29;20231;-83
2021/06/27 10:31:46;;;;;;;6.93;6.43;;;32.10;88.70;;;;;;4896672;29;20212;-82
2021/06/27 10:34:14;;;;;;;6.53;6.13;;;31.90;88.40;;;;;;4902183;29;20219;-82
2021/06/27 10:36:44;;;;;;;6.60;6.20;;;31.70;86.00;;;;;;4903037;29;20200;-82
2021/06/27 10:39:13;;;;;;;6.70;6.30;;;31.60;88.90;;;;;;4900462;29;20299;-83
2021/06/27 10:41:59;;;;;;;7.37;6.67;;;31.50;90.20;;;;;;4899829;29;20219;-82
2021/06/27 10:44:27;;;;;;;7.50;6.90;;;31.60;91.10;;;;;;4897628;29;20268;-82
2021/06/27 10:46:57;;;;;;;14.93;9.40;;;31.60;90.90;;;;;;4900210;29;20213;-79
2021/06/27 10:49:52;;;;;;;13.67;9.33;;;31.80;89.50;;;;;;4898195;29;20252;-82
2021/06/27 10:52:21;;;;;;;7.00;6.40;;;31.80;90.00;;;;;;4908219;29;20201;-82
2021/06/27 10:55:20;;;;;;;6.77;6.20;;;31.80;89.40;;;;;;4896279;29;20304;-83
2021/06/27 10:58:03;;;;;;;6.13;5.83;;;31.70;87.60;;;;;;4897888;29;20215;-83
2021/06/27 11:01:01;;;;;;;6.33;5.93;;;31.30;84.30;;;;;;4897977;29;20205;-82
2021/06/27 11:03:34;;;;;;;6.07;5.67;;;31.20;83.60;;;;;;4894412;29;20566;-82
2021/06/27 11:06:02;;;;;;;6.13;5.73;;;31.00;86.50;;;;;;4895449;29;20212;-81
2021/06/27 11:08:33;;;;;;;6.07;5.77;;;30.80;88.90;;;;;;4907313;29;20633;-82
2021/06/27 11:11:02;;;;;;;6.37;5.80;;;30.70;88.90;;;;;;4911192;29;20200;-81
2021/06/27 11:13:29;;;;;;;6.10;5.80;;;30.70;90.20;;;;;;4896427;29;20200;-82
2021/06/27 11:16:08;;;;;;;6.40;5.90;;;30.60;90.30;;;;;;4897373;29;20200;-83
2021/06/27 11:18:37;;;;;;;6.40;6.00;;;30.20;89.50;;;;;;4897416;29;20311;-82
2021/06/27 11:21:18;;;;;;;6.83;6.43;;;30.10;90.00;;;;;;4915295;29;20207;-82
2021/06/27 11:24:01;;;;;;;7.00;6.50;;;30.20;91.60;;;;;;4899943;29;20209;-83
2021/06/27 11:26:57;;;;;;;6.83;6.43;;;30.10;91.40;;;;;;4900470;29;20214;-82
2021/06/27 11:29:54;;;;;;;7.53;6.93;;;29.70;89.90;;;;;;4910592;29;20594;-83
2021/06/27 11:32:39;;;;;;;6.73;6.33;;;29.50;91.00;;;;;;4910015;29;20208;-82
2021/06/27 11:35:08;;;;;;;6.97;6.37;;;29.60;92.20;;;;;;4911137;29;20200;-83
2021/06/27 11:37:44;;;;;;;6.70;6.30;;;29.70;90.00;;;;;;4894153;29;20545;-82
2021/06/27 11:40:14;;;;;;;8.10;7.17;;;29.70;90.50;;;;;;4901338;29;20554;-82
2021/06/27 11:42:52;;;;;;;7.50;7.00;;;29.80;91.00;;;;;;4900353;29;20208;-82
2021/06/27 11:45:43;;;;;;;6.37;5.97;;;29.50;90.40;;;;;;4912671;29;20297;-82
2021/06/27 11:48:10;;;;;;;6.77;6.27;;;29.40;89.40;;;;;;4898288;29;20235;-81
2021/06/27 11:50:42;;;;;;;6.40;5.90;;;29.40;90.40;;;;;;4900014;29;20212;-81
2021/06/27 11:53:11;;;;;;;5.90;5.50;;;29.30;91.50;;;;;;4901373;29;20196;-82
2021/06/27 11:55:41;;;;;;;6.00;5.60;;;29.30;91.00;;;;;;4901572;29;20204;-82
2021/06/27 11:58:16;;;;;;;6.00;5.60;;;29.50;90.10;;;;;;4893822;29;20750;-82
2021/06/27 12:00:45;;;;;;;5.77;5.37;;;29.30;91.00;;;;;;4913835;29;20213;-82
2021/06/27 12:03:15;;;;;;;5.50;5.20;;;29.10;90.80;;;;;;4916135;29;20705;-82
2021/06/27 12:05:51;;;;;;;5.90;5.60;;;29.10;91.20;;;;;;4900366;29;20205;-81
2021/06/27 12:08:18;;;;;;;6.40;6.00;;;29.10;90.10;;;;;;4899079;29;20710;-81
2021/06/27 12:10:47;;;;;;;6.00;5.60;;;29.10;90.80;;;;;;4899427;29;20205;-81
2021/06/27 12:13:13;;;;;;;5.90;5.50;;;29.20;89.90;;;;;;4900088;29;20679;-81
2021/06/27 12:15:44;;;;;;;6.10;5.70;;;29.10;88.80;;;;;;4897809;29;20200;-81
2021/06/27 12:18:13;;;;;;;6.17;5.77;;;28.80;90.80;;;;;;4898326;29;20229;-82
2021/06/27 12:20:46;;;;;;;6.37;5.97;;;28.90;90.60;;;;;;4900249;29;20597;-81
2021/06/27 12:23:15;;;;;;;6.87;6.40;;;29.00;91.90;;;;;;4900614;29;20291;-81
2021/06/27 12:25:47;;;;;;;7.10;6.60;;;28.90;93.40;;;;;;4912663;29;20236;-81
2021/06/27 12:28:16;;;;;;;6.27;5.87;;;29.00;92.90;;;;;;4900359;29;20717;-81
2021/06/27 12:30:50;;;;;;;6.33;5.93;;;29.10;91.30;;;;;;4898928;29;20216;-81
2021/06/27 12:33:20;;;;;;;5.90;5.60;;;29.00;91.70;;;;;;4900205;29;20694;-81
2021/06/27 12:35:49;;;;;;;6.60;6.20;;;29.00;90.20;;;;;;4897246;29;20208;-81
2021/06/27 12:38:17;;;;;;;5.80;5.50;;;28.80;91.20;;;;;;4897436;29;20229;-81
2021/06/27 12:40:49;;;;;;;5.87;5.57;;;29.00;90.70;;;;;;4898061;29;20208;-81
2021/06/27 12:43:25;;;;;;;5.77;5.40;;;29.10;91.30;;;;;;4899549;29;20204;-81
2021/06/27 12:46:12;;;;;;;5.77;5.40;;;29.30;91.00;;;;;;4899512;29;20224;-81
2021/06/27 12:48:39;;;;;;;5.50;5.20;;;29.30;92.00;;;;;;4903729;29;20315;-83
2021/06/27 12:51:20;;;;;;;6.13;5.73;;;29.10;91.00;;;;;;4899045;29;20668;-82
2021/06/27 12:54:30;;;;;;;5.70;5.40;;;28.90;90.10;;;;;;4913569;29;20208;-82
2021/06/27 12:57:04;;;;;;;6.13;5.73;;;28.90;91.50;;;;;;4887152;29;20223;-82
2021/06/27 12:59:58;;;;;;;5.90;5.50;;;29.00;92.40;;;;;;4896126;29;20211;-82
2021/06/27 13:02:33;;;;;;;5.60;5.30;;;29.00;91.10;;;;;;4852093;29;20205;-82
2021/06/27 13:05:02;;;;;;;5.80;5.47;;;29.20;92.00;;;;;;4898286;29;20204;-81